M I D A S
Marine Information and Data Acquisition System
Tripno 313 of the Zeeleeuw from 2002-04-16 07:30:55 to 2002-04-16 14:15:32
Back to CruiseResearch ActivitiesStationsMapUnderway DataData graphs

EquipmentUnitsComment
TimeDGPSUTC
LatitudeDGPSDM.mWGS84
LongitudeDGPSDM.mWGS84
HeadingGyrodeg 
SOGDGPSknotsSpeed over ground
COGDGPSdegCourse over ground
DepthEcho soundermeters200 kHz
Missing or incorrect values are displayed as -999
Navigation data collected by the RV Zeeleeuw from 2002-04-16 07:30:55 to 2002-04-16 14:15:32
Time Latitude Longitude Heading SOG COG Depth
2002-04-16 07:31:58 51°13.686 2°55.904 102.8 0.1 240.3 7.1
2002-04-16 07:32:58 51°13.691 2°55.86 91.5 2.4 274 -999
2002-04-16 07:33:58 51°13.689 2°55.79 85.7 2.7 265.9 9.4
2002-04-16 07:34:58 51°13.687 2°55.754 57.8 1.3 56.8 12.1
2002-04-16 07:35:58 51°13.696 2°55.767 20.8 1.3 192.2 -999
2002-04-16 07:36:58 51°13.723 2°55.747 331.8 5.3 334.8 10.2
2002-04-16 07:37:58 51°13.819 2°55.655 335.8 6.6 332.1 9.3
2002-04-16 07:38:58 51°13.911 2°55.59 338.2 5.6 336.1 9.1
2002-04-16 07:39:58 51°13.996 2°55.527 336.3 5.9 334.6 9.6
2002-04-16 07:40:58 51°14.109 2°55.436 333.8 8.5 331.8 8.6
2002-04-16 07:41:59 51°14.241 2°55.288 319.8 10.1 317.5 -999
2002-04-16 07:42:59 51°14.348 2°55.068 302.7 10.7 300.1 -999
2002-04-16 07:43:58 51°14.378 2°54.792 276.5 11.3 271.3 8.6
2002-04-16 07:44:58 51°14.366 2°54.47 268.8 12.6 263.8 8.3
2002-04-16 07:45:58 51°14.282 2°54.15 244.5 13.5 240.3 7.9
2002-04-16 07:46:58 51°14.175 2°53.824 245.2 14 242.7 7.4
2002-04-16 07:47:58 51°14.065 2°53.489 244.8 14.3 241.8 7.8
2002-04-16 07:48:58 51°13.949 2°53.152 243.5 14.7 240.8 8.3
2002-04-16 07:49:58 51°13.831 2°52.811 243.7 14.7 241.1 8.7
2002-04-16 07:50:58 51°13.711 2°52.467 244.2 14.8 241.5 8.9
2002-04-16 07:51:58 51°13.593 2°52.122 243.8 15 240.8 8.6
2002-04-16 07:52:58 51°13.475 2°51.776 244.8 14.9 241.5 9.1
2002-04-16 07:53:58 51°13.358 2°51.427 244.7 15 241.7 9.1
2002-04-16 07:54:58 51°13.239 2°51.078 244.7 15 242 9.3
2002-04-16 07:55:58 51°13.12 2°50.728 243.7 15 242 9.5
2002-04-16 07:56:58 51°13.002 2°50.38 244.2 14.9 242.2 9.6
2002-04-16 07:57:58 51°12.885 2°50.034 244.2 14.8 241.5 9.8
2002-04-16 07:58:58 51°12.768 2°49.688 243.7 14.9 241.3 9.9
2002-04-16 07:59:58 51°12.656 2°49.333 246.3 15 243.5 10.1
2002-04-16 08:00:58 51°12.545 2°48.977 244.8 15 243 10.3
2002-04-16 08:01:58 51°12.435 2°48.62 245.8 15 243.8 10.4
2002-04-16 08:02:58 51°12.324 2°48.263 246.2 15 244.4 10.5
2002-04-16 08:03:58 51°12.214 2°47.909 245.5 14.9 243.2 10.8
2002-04-16 08:04:58 51°12.104 2°47.553 246.8 15 244.1 10.9
2002-04-16 08:05:58 51°11.994 2°47.195 246.5 15.1 243.8 10.9
2002-04-16 08:06:58 51°11.885 2°46.836 246 15 244 10.8
2002-04-16 08:07:58 51°11.775 2°46.478 246.2 15 244.2 11.1
2002-04-16 08:08:58 51°11.667 2°46.119 246 15 244.5 10.9
2002-04-16 08:09:58 51°11.558 2°45.761 247 15 244.7 10.7
2002-04-16 08:10:58 51°11.448 2°45.403 246.5 15.2 244.1 10.6
2002-04-16 08:11:58 51°11.34 2°45.044 245.8 15.1 244 10.4
2002-04-16 08:12:58 51°11.231 2°44.684 245.5 15.1 243.2 10
2002-04-16 08:13:58 51°11.122 2°44.323 246.2 15.1 244.9 9.8
2002-04-16 08:14:58 51°11.015 2°43.963 246.7 15.1 243.7 9.8
2002-04-16 08:15:58 51°10.907 2°43.604 245.5 15 244.2 9.5
2002-04-16 08:16:58 51°10.799 2°43.247 245.3 14.9 243.5 9.3
2002-04-16 08:17:58 51°10.695 2°42.893 246.2 14.8 245.4 9
2002-04-16 08:18:58 51°10.588 2°42.544 245.7 14.6 243.8 8.7
2002-04-16 08:19:58 51°10.485 2°42.195 246.8 14.5 245 8.6
2002-04-16 08:20:58 51°10.381 2°41.849 245.5 14.4 244.4 8.5
2002-04-16 08:21:58 51°10.277 2°41.504 246 14.4 244.5 8.4
2002-04-16 08:22:58 51°10.173 2°41.16 245.5 14.3 244.2 8.2
2002-04-16 08:23:58 51°10.071 2°40.815 247 14.5 245.2 8.2
2002-04-16 08:24:58 51°9.968 2°40.47 246.7 14.4 245.3 8.3
2002-04-16 08:25:58 51°9.864 2°40.128 245.3 14.4 243.6 8.3
2002-04-16 08:26:58 51°9.762 2°39.783 246.5 14.4 244.8 8.4
2002-04-16 08:27:58 51°9.66 2°39.44 246.2 14.3 244.8 8.2
2002-04-16 08:28:58 51°9.56 2°39.095 248.8 14.4 247.3 8.3
2002-04-16 08:29:58 51°9.473 2°38.739 251.3 14.4 249.6 8.4
2002-04-16 08:30:58 51°9.387 2°38.381 250.8 14.5 249.3 8.7
2002-04-16 08:31:58 51°9.302 2°38.023 250.7 14.5 249.3 8.5
2002-04-16 08:32:58 51°9.217 2°37.665 250.8 14.5 249.1 8.6
2002-04-16 08:33:58 51°9.132 2°37.308 250.2 14.5 249 8.4
2002-04-16 08:34:58 51°9.05 2°36.949 252 14.4 250.4 8.1
2002-04-16 08:35:58 51°8.967 2°36.591 251.2 14.4 250.2 8
2002-04-16 08:36:58 51°8.889 2°36.231 254.2 14.4 252.9 7.9
2002-04-16 08:37:58 51°8.814 2°35.866 253.3 14.6 251.6 8.3
2002-04-16 08:38:58 51°8.733 2°35.495 253.2 15 251 9
2002-04-16 08:39:58 51°8.649 2°35.117 252.7 15.3 250.7 9.8
2002-04-16 08:40:58 51°8.565 2°34.738 253.2 15.2 251.2 11.7
2002-04-16 08:41:58 51°8.481 2°34.361 252.8 15.1 251 13.7
2002-04-16 08:42:58 51°8.368 2°34.006 235.7 15 235.8 14
2002-04-16 08:43:58 51°8.202 2°33.713 221.5 14.8 222.1 11.4
2002-04-16 08:44:58 51°8.061 2°33.497 221.8 9.1 222.5 9.7
2002-04-16 08:45:58 51°7.967 2°33.393 200.8 5.9 207.2 8.5
2002-04-16 08:46:58 51°7.893 2°33.329 213.2 4.7 214.6 7.9
2002-04-16 08:47:58 51°7.842 2°33.246 239.5 4.2 233 7.4
2002-04-16 08:48:58 51°7.813 2°33.157 269.3 3.4 251.2 7.6
2002-04-16 08:49:58 51°7.803 2°33.078 289.7 2.9 261.3 7.9
2002-04-16 08:50:58 51°7.802 2°32.992 301.5 3.4 275.4 8.5
2002-04-16 08:51:58 51°7.817 2°32.903 315.7 3.6 290.9 9.4
2002-04-16 08:52:58 51°7.841 2°32.813 318.7 3.7 294.1 10.7
2002-04-16 08:53:58 51°7.862 2°32.73 320 3.1 289.6 11.8
2002-04-16 08:54:58 51°7.871 2°32.659 310 2.7 276 12.7
2002-04-16 08:55:58 51°7.863 2°32.589 278 2.7 251.7 12.9
2002-04-16 08:56:58 51°7.842 2°32.529 255 2.5 238.5 13
2002-04-16 08:57:58 51°7.818 2°32.479 240.8 2.3 228.8 12.3
2002-04-16 08:58:58 51°7.794 2°32.438 232.3 2 224.4 12.4
2002-04-16 08:59:58 51°7.77 2°32.402 229.3 1.9 223.8 12.1
2002-04-16 09:00:58 51°7.748 2°32.37 228.5 1.8 222 12
2002-04-16 09:01:58 51°7.726 2°32.338 227 1.8 220.4 11.5
2002-04-16 09:02:58 51°7.703 2°32.307 227.7 1.8 219 11
2002-04-16 09:03:58 51°7.68 2°32.275 230.2 1.9 219.2 10.7
2002-04-16 09:04:58 51°7.656 2°32.242 233.3 1.9 219.8 10.9
2002-04-16 09:05:58 51°7.631 2°32.208 241.7 1.9 222.3 10.3
2002-04-16 09:06:58 51°7.608 2°32.174 250.3 1.9 223.2 9.9
2002-04-16 09:07:58 51°7.585 2°32.138 255.5 1.9 224.8 4.9
2002-04-16 09:08:58 51°7.563 2°32.102 257.2 1.9 226.9 10.1
2002-04-16 09:09:58 51°7.541 2°32.065 260.3 1.9 226.1 9.7
2002-04-16 09:10:58 51°7.519 2°32.029 264.3 1.9 226 9.6
2002-04-16 09:11:58 51°7.498 2°31.993 268.3 1.9 227.7 9.5
2002-04-16 09:12:58 51°7.478 2°31.953 276.7 2 234.7 9.8
2002-04-16 09:13:58 51°7.461 2°31.899 284 2.4 245.7 9.3
2002-04-16 09:14:58 51°7.447 2°31.837 291.8 2.5 252.9 9.9
2002-04-16 09:15:58 51°7.441 2°31.775 309.8 2.2 264.7 10.3
2002-04-16 09:16:58 51°7.44 2°31.719 326.8 2 273.7 10.4
2002-04-16 09:17:58 51°7.449 2°31.672 347.7 1.8 293.4 10.7
2002-04-16 09:18:58 51°7.465 2°31.645 16.5 1.3 334.7 10.5
2002-04-16 09:19:58 51°7.489 2°31.661 43.7 2.1 41.1 10.5
2002-04-16 09:20:58 51°7.517 2°31.696 41.2 2.1 37.9 10.9
2002-04-16 09:21:58 51°7.537 2°31.726 48.5 1.4 52 11.1
2002-04-16 09:22:58 51°7.546 2°31.758 59.2 1.3 77.2 11
2002-04-16 09:23:58 51°7.544 2°31.794 71.8 1.5 103.3 10.9
2002-04-16 09:24:58 51°7.533 2°31.833 85.3 1.8 121.8 10.9
2002-04-16 09:25:58 51°7.513 2°31.873 100.7 2.1 136.5 10.5
2002-04-16 09:26:58 51°7.483 2°31.905 111.2 2.1 149.5 9.7
2002-04-16 09:27:58 51°7.442 2°31.935 147.2 3.9 161.2 8.9
2002-04-16 09:28:58 51°7.359 2°31.868 243 6.5 235.6 8.8
2002-04-16 09:29:58 51°7.375 2°31.732 337.2 4.9 315 9.3
2002-04-16 09:30:58 51°7.416 2°31.698 5.3 1.9 334.4 9.9
2002-04-16 09:31:58 51°7.436 2°31.683 16.5 1.2 342.2 10.4
2002-04-16 09:32:58 51°7.466 2°31.679 15.5 2.4 358 10.6
2002-04-16 09:33:58 51°7.554 2°31.706 28.2 6.8 20.8 11.3
2002-04-16 09:34:58 51°7.684 2°31.834 35.7 11.1 32.2 12.5
2002-04-16 09:35:58 51°7.86 2°31.982 30 12.1 26.6 16.3
2002-04-16 09:36:58 51°8.038 2°32.131 36.7 12 30.4 16.5
2002-04-16 09:37:58 51°8.199 2°32.312 41.7 11.9 35.8 16.2
2002-04-16 09:38:58 51°8.364 2°32.484 39.8 11.9 33.2 17.1
2002-04-16 09:39:58 51°8.528 2°32.653 38.7 11.7 32 18.1
2002-04-16 09:40:58 51°8.694 2°32.822 38.5 11.9 32.7 17.7
2002-04-16 09:41:58 51°8.854 2°32.995 39.7 11.5 35.9 17.3
2002-04-16 09:42:58 51°9.013 2°33.171 40.8 11.8 35.8 16.8
2002-04-16 09:43:58 51°9.174 2°33.351 41.3 11.8 34.5 15.9
2002-04-16 09:44:58 51°9.333 2°33.532 39.5 11.9 35.7 14.8
2002-04-16 09:45:58 51°9.489 2°33.727 41.5 12.1 39 11.9
2002-04-16 09:46:58 51°9.646 2°33.933 45.2 12.3 42.5 10.2
2002-04-16 09:47:58 51°9.789 2°34.16 48.3 12.2 46.5 9.5
2002-04-16 09:48:58 51°9.935 2°34.387 46.8 12.3 45.5 9.6
2002-04-16 09:49:58 51°10.081 2°34.612 46.7 12.3 44.5 9.7
2002-04-16 09:50:58 51°10.228 2°34.841 47.3 12.5 45.3 9.6
2002-04-16 09:51:58 51°10.37 2°35.069 47 12.1 46.4 8.6
2002-04-16 09:52:58 51°10.516 2°35.29 46.2 12.1 44.2 8.7
2002-04-16 09:53:58 51°10.665 2°35.506 44.3 12.2 42.1 8.8
2002-04-16 09:54:58 51°10.818 2°35.713 43.5 12.1 41 9.2
2002-04-16 09:55:58 51°10.97 2°35.922 43.5 12.2 41.3 9.4
2002-04-16 09:56:58 51°11.13 2°36.115 36.3 12.1 34.4 9.5
2002-04-16 09:57:58 51°11.298 2°36.291 37.8 12.1 34.9 9.8
2002-04-16 09:58:58 51°11.464 2°36.469 35 12.1 31.8 9.8
2002-04-16 09:59:58 51°11.639 2°36.627 35 12.1 31.3 9.9
2002-04-16 10:00:58 51°11.81 2°36.793 35.5 12.1 31 9.6
2002-04-16 10:01:58 51°11.983 2°36.954 34.8 12.1 31.4 9.7
2002-04-16 10:02:58 51°12.155 2°37.118 34.5 12 30.7 9.9
2002-04-16 10:03:58 51°12.327 2°37.278 32.8 11.9 29.7 10.2
2002-04-16 10:04:58 51°12.499 2°37.441 32.3 12.1 30.5 10.7
2002-04-16 10:05:58 51°12.671 2°37.604 34.2 12.1 30.9 11.4
2002-04-16 10:06:58 51°12.844 2°37.767 34 12.1 30.9 11.8
2002-04-16 10:07:58 51°13.017 2°37.931 36 12.2 32.3 12.5
2002-04-16 10:08:58 51°13.19 2°38.091 34 12.1 30.4 12.9
2002-04-16 10:09:58 51°13.363 2°38.255 33.7 12.2 30.3 13
2002-04-16 10:10:58 51°13.536 2°38.419 33.5 12.2 30.4 13.1
2002-04-16 10:11:58 51°13.71 2°38.585 35.5 12.2 32.3 12.6
2002-04-16 10:12:58 51°13.899 2°38.692 11 12.3 5.9 11.8
2002-04-16 10:13:58 51°14.101 2°38.63 341.2 12.9 335 12.9
2002-04-16 10:14:58 51°14.277 2°38.421 324.5 13.4 316.2 17.1
2002-04-16 10:15:58 51°14.367 2°38.092 281.2 14.3 274.8 16.6
2002-04-16 10:16:58 51°14.281 2°37.73 238.8 15 237.2 15.7
2002-04-16 10:17:58 51°14.117 2°37.425 229.8 15.1 228.4 17.4
2002-04-16 10:18:58 51°13.957 2°37.109 235.3 15.4 234.6 19.1
2002-04-16 10:19:58 51°13.808 2°36.776 234 15.2 233.3 19.6
2002-04-16 10:20:58 51°13.658 2°36.452 233.8 15.1 233.4 18.5
2002-04-16 10:21:58 51°13.509 2°36.123 233.8 15.2 233.9 16.8
2002-04-16 10:22:58 51°13.358 2°35.796 232.7 15.1 233 16.7
2002-04-16 10:23:58 51°13.208 2°35.477 233.8 15 232.8 16.4
2002-04-16 10:24:58 51°13.059 2°35.155 235.5 15.1 234.1 16.1
2002-04-16 10:25:58 51°12.906 2°34.838 234.8 15 232.4 14.6
2002-04-16 10:26:58 51°12.753 2°34.523 235 15 232.8 12.9
2002-04-16 10:27:58 51°12.599 2°34.211 235 15 232.6 12.9
2002-04-16 10:28:58 51°12.434 2°33.918 223.5 14.8 222.4 13.6
2002-04-16 10:29:58 51°12.239 2°33.678 216 14.6 215.5 16.6
2002-04-16 10:30:58 51°12.047 2°33.44 219 14.5 218.5 18.6
2002-04-16 10:31:58 51°11.853 2°33.197 219 14.8 217.7 18.9
2002-04-16 10:32:58 51°11.661 2°32.955 219.3 14.7 218.1 18.2
2002-04-16 10:33:58 51°11.469 2°32.717 219.2 14.7 218.3 14.7
2002-04-16 10:34:58 51°11.269 2°32.496 211.2 14.5 210.3 12.8
2002-04-16 10:35:58 51°11.085 2°32.443 152.5 8.1 158.3 14.2
2002-04-16 10:36:58 51°11.045 2°32.546 86.2 3.3 98.3 13.2
2002-04-16 10:37:58 51°11.069 2°32.603 30.5 2.2 32.6 13.1
2002-04-16 10:38:58 51°11.091 2°32.616 22 1.2 15 13.4
2002-04-16 10:39:58 51°11.104 2°32.62 21 0.6 9.7 13.4
2002-04-16 10:40:58 51°11.13 2°32.636 32.8 2.7 28.8 13.6
2002-04-16 10:41:58 51°11.166 2°32.694 52.2 3.3 53.7 13.2
2002-04-16 10:42:58 51°11.193 2°32.757 51.2 2.6 55.8 12.7
2002-04-16 10:43:58 51°11.217 2°32.808 49.2 2.3 52.8 12.4
2002-04-16 10:44:58 51°11.237 2°32.855 51.5 2.1 56.9 12.2
2002-04-16 10:45:58 51°11.254 2°32.898 48 1.9 54.3 11.8
2002-04-16 10:46:58 51°11.273 2°32.935 44.8 1.8 49.2 11.8
2002-04-16 10:47:58 51°11.293 2°32.97 43 1.8 46.6 11.6
2002-04-16 10:48:58 51°11.313 2°33.011 49.5 2.1 55.1 11.5
2002-04-16 10:49:58 51°11.332 2°33.06 53.3 2.3 59.6 10.9
2002-04-16 10:50:58 51°11.349 2°33.112 53.3 2.2 61.8 12.3
2002-04-16 10:51:58 51°11.369 2°33.155 45.2 2.1 50.4 11.7
2002-04-16 10:52:58 51°11.391 2°33.197 44 2.1 49 10.9
2002-04-16 10:53:58 51°11.415 2°33.237 41.7 2 46.7 10.5
2002-04-16 10:54:58 51°11.438 2°33.274 40.8 2 46 10
2002-04-16 10:55:58 51°11.462 2°33.31 39.3 1.9 43.7 10.2
2002-04-16 10:56:59 51°11.487 2°33.345 36.8 1.9 40 10.4
2002-04-16 10:57:58 51°11.511 2°33.375 34.7 1.9 37.1 9.6
2002-04-16 10:58:58 51°11.536 2°33.409 41.5 2 45.9 10.5
2002-04-16 10:59:58 51°11.556 2°33.452 50.8 2.1 58.6 10
2002-04-16 11:00:58 51°11.574 2°33.498 48.3 2.1 55.6 10
2002-04-16 11:01:58 51°11.594 2°33.541 45.5 2 52 10.3
2002-04-16 11:02:58 51°11.614 2°33.582 44.7 2 50.8 10.2
2002-04-16 11:03:58 51°11.635 2°33.622 42.2 2 48.5 10
2002-04-16 11:04:58 51°11.659 2°33.66 39.8 2 43.9 11.1
2002-04-16 11:05:58 51°11.682 2°33.698 45.7 2 50.7 11.1
2002-04-16 11:06:58 51°11.702 2°33.745 53 2.2 59.7 11.6
2002-04-16 11:07:58 51°11.718 2°33.795 57.3 2.2 64.8 11.9
2002-04-16 11:08:58 51°11.734 2°33.846 49.5 2.1 56.6 12.5
2002-04-16 11:09:58 51°11.757 2°33.886 40.2 2 43.4 12.8
2002-04-16 11:10:58 51°11.782 2°33.919 38.5 2 41 13.3
2002-04-16 11:11:58 51°11.809 2°33.952 37.2 2.1 36.5 13.5
2002-04-16 11:12:58 51°11.835 2°33.99 45.7 2.1 47.7 13.5
2002-04-16 11:13:58 51°11.855 2°34.033 52.2 2 56.8 13.4
2002-04-16 11:14:58 51°11.871 2°34.074 52.2 1.8 59.6 13.3
2002-04-16 11:15:58 51°11.884 2°34.114 54.2 1.7 64.6 13.1
2002-04-16 11:16:58 51°11.894 2°34.154 57.3 1.5 73.3 13.4
2002-04-16 11:17:58 51°11.901 2°34.188 58.2 1.3 76.8 13.2
2002-04-16 11:18:58 51°11.906 2°34.22 62.5 1.3 79.2 13.3
2002-04-16 11:19:58 51°11.908 2°34.255 76.2 1.5 92.6 13.3
2002-04-16 11:20:58 51°11.905 2°34.306 80.2 3 88.1 12.5
2002-04-16 11:21:58 51°11.969 2°34.375 7.8 5.1 6.3 12.9
2002-04-16 11:22:58 51°12.043 2°34.308 332.5 5.1 324 14.1
2002-04-16 11:23:58 51°12.107 2°34.266 358.8 3.8 350 14.5
2002-04-16 11:24:58 51°12.227 2°34.294 9.5 10.9 6.6 15.7
2002-04-16 11:25:58 51°12.434 2°34.318 7.3 12.8 4.4 15.7
2002-04-16 11:26:58 51°12.645 2°34.344 10.7 12.5 6.1 13.2
2002-04-16 11:27:58 51°12.853 2°34.366 7.2 12.6 1.8 17.4
2002-04-16 11:28:59 51°13.064 2°34.391 8 12.5 4.9 17
2002-04-16 11:29:58 51°13.27 2°34.422 10.3 12.7 7.2 14.9
2002-04-16 11:30:58 51°13.482 2°34.426 356.3 12.8 353.9 13.4
2002-04-16 11:31:58 51°13.696 2°34.366 353 13.1 350.1 20.4
2002-04-16 11:32:58 51°13.911 2°34.318 358.3 12.9 353.4 22.1
2002-04-16 11:33:58 51°14.123 2°34.265 354.5 12.9 350 21.7
2002-04-16 11:34:58 51°14.334 2°34.211 355.7 12.8 351.5 23.7
2002-04-16 11:35:58 51°14.545 2°34.157 357.2 12.8 351.2 25.2
2002-04-16 11:36:58 51°14.753 2°34.096 355 12.7 348.5 26.3
2002-04-16 11:37:58 51°14.96 2°34.035 356.2 12.6 349.8 26.3
2002-04-16 11:38:58 51°15.166 2°33.965 354.7 12.7 347.1 25.7
2002-04-16 11:39:58 51°15.37 2°33.887 353.5 12.6 347 24
2002-04-16 11:40:58 51°15.574 2°33.815 354.5 12.6 348.3 19
2002-04-16 11:41:58 51°15.77 2°33.701 335.3 12.7 332.1 11.8
2002-04-16 11:42:58 51°15.956 2°33.548 337.7 12.5 335.1 9.7
2002-04-16 11:43:58 51°16.143 2°33.403 332 12.5 329.8 9.1
2002-04-16 11:44:58 51°16.331 2°33.241 336.8 13.2 334.1 15.7
2002-04-16 11:45:58 51°16.539 2°33.126 346.3 13 343.2 25.5
2002-04-16 11:46:58 51°16.749 2°33.041 358.2 12.9 354.1 25.7
2002-04-16 11:47:58 51°16.964 2°33.036 2.5 12.9 359.2 25.1
2002-04-16 11:48:58 51°17.172 2°32.989 340.7 12.6 338.9 25.4
2002-04-16 11:49:58 51°17.322 2°32.744 309.3 13.4 303.9 28.2
2002-04-16 11:50:58 51°17.473 2°32.486 321.8 13.3 317.5 27.3
2002-04-16 11:51:58 51°17.594 2°32.19 300.5 13.5 295.7 26.6
2002-04-16 11:52:58 51°17.683 2°31.86 302.7 13.5 297.5 26.1
2002-04-16 11:53:58 51°17.8 2°31.556 306.5 13.5 300.8 28.4
2002-04-16 11:54:58 51°17.928 2°31.263 313.8 13.5 307.8 30
2002-04-16 11:55:58 51°18.062 2°30.973 311.2 13.5 305.2 30.3
2002-04-16 11:56:58 51°18.159 2°30.793 325.3 7.2 315.3 30.8
2002-04-16 11:57:58 51°18.239 2°30.688 336.2 5.7 324.4 31.9
2002-04-16 11:58:58 51°18.308 2°30.59 326.7 5.6 313.2 30.9
2002-04-16 11:59:58 51°18.37 2°30.482 330 5.4 315.1 31.1
2002-04-16 12:00:58 51°18.427 2°30.423 352.2 3.2 333 31.3
2002-04-16 12:01:58 51°18.464 2°30.403 5.5 1.9 345.6 30.8
2002-04-16 12:02:58 51°18.489 2°30.388 356.5 1.4 332.2 30.8
2002-04-16 12:03:58 51°18.506 2°30.362 338.8 1.5 307.5 30.4
2002-04-16 12:04:58 51°18.519 2°30.314 309.7 2.2 282.9 30.1
2002-04-16 12:05:58 51°18.516 2°30.249 275 2.8 255.2 29.5
2002-04-16 12:06:58 51°18.495 2°30.173 258.3 3.3 242.3 28.7
2002-04-16 12:07:58 51°18.465 2°30.093 252.3 3.6 239.6 28.5
2002-04-16 12:08:58 51°18.432 2°30.02 244.7 3.3 231.7 27.9
2002-04-16 12:09:58 51°18.397 2°29.957 241.5 2.9 225.9 27.6
2002-04-16 12:10:58 51°18.365 2°29.908 241.2 2.5 222.2 26.7
2002-04-16 12:11:58 51°18.337 2°29.866 244.3 2.2 221.8 27
2002-04-16 12:12:58 51°18.312 2°29.831 247.5 1.9 222.6 27.6
2002-04-16 12:13:58 51°18.289 2°29.799 249.5 1.7 219.7 26.2
2002-04-16 12:14:58 51°18.268 2°29.773 252.2 1.5 218.6 27.1
2002-04-16 12:15:58 51°18.249 2°29.749 257.8 1.4 219.7 26.7
2002-04-16 12:16:58 51°18.232 2°29.727 261.2 1.3 217.4 26.5
2002-04-16 12:17:58 51°18.216 2°29.709 264.3 1.2 216 26.7
2002-04-16 12:18:58 51°18.2 2°29.691 267 1.1 214.6 26.7
2002-04-16 12:19:58 51°18.184 2°29.677 266.5 1 205.9 26.9
2002-04-16 12:20:58 51°18.172 2°29.627 281.2 3.1 263.9 25.2
2002-04-16 12:21:58 51°18.177 2°29.528 295.5 4 283.7 24.6
2002-04-16 12:22:58 51°18.209 2°29.433 315.8 3.9 309.7 20.6
2002-04-16 12:23:58 51°18.265 2°29.393 349.3 3.7 352.4 18
2002-04-16 12:24:58 51°18.326 2°29.411 15.5 3.8 23.8 17.3
2002-04-16 12:25:58 51°18.377 2°29.482 46 4.3 53.1 18.4
2002-04-16 12:26:58 51°18.404 2°29.582 64.8 4.1 71.2 19.8
2002-04-16 12:27:58 51°18.412 2°29.691 86.8 4.1 89.8 22.6
2002-04-16 12:28:59 51°18.394 2°29.786 127.8 3.3 121 25.7
2002-04-16 12:29:58 51°18.357 2°29.834 169 2.7 154.2 26.7
2002-04-16 12:30:58 51°18.318 2°29.849 192.5 2.3 175.1 27.8
2002-04-16 12:31:58 51°18.282 2°29.845 211.8 2.1 188.7 28.5
2002-04-16 12:32:58 51°18.25 2°29.83 218.8 2 198.7 28.6
2002-04-16 12:33:58 51°18.219 2°29.811 224.5 2 202.8 28.9
2002-04-16 12:34:59 51°18.192 2°29.786 236.2 1.7 216 28.5
2002-04-16 12:35:58 51°18.17 2°29.759 244.7 1.7 221.9 28.5
2002-04-16 12:36:58 51°18.146 2°29.721 241.2 2.2 224.4 28.4
2002-04-16 12:37:58 51°18.119 2°29.679 238.8 2.4 222.9 28.4
2002-04-16 12:38:58 51°18.09 2°29.636 237 2.4 222.6 27.9
2002-04-16 12:39:58 51°18.06 2°29.594 233.2 2.4 217.5 28.3
2002-04-16 12:40:58 51°18.027 2°29.559 229.8 2.3 213.4 27.6
2002-04-16 12:41:58 51°17.995 2°29.525 230.7 2.3 212.3 27.3
2002-04-16 12:42:58 51°17.966 2°29.49 238.8 2.2 222 28.2
2002-04-16 12:43:58 51°17.939 2°29.453 238.5 2.1 221.1 27.2
2002-04-16 12:44:58 51°17.915 2°29.415 244.8 2 227.2 27.3
2002-04-16 12:45:59 51°17.899 2°29.383 254.2 1.1 231.9 26.8
2002-04-16 12:46:59 51°17.891 2°29.365 259.7 0.7 230.7 26.9
2002-04-16 12:47:58 51°17.885 2°29.355 262 0.4 220.1 27.1
2002-04-16 12:48:58 51°17.879 2°29.347 262.8 0.6 227.9 27.6
2002-04-16 12:49:58 51°17.871 2°29.326 259 1.1 238.7 27.4
2002-04-16 12:50:58 51°17.851 2°29.3 223 2.2 203.2 27
2002-04-16 12:51:58 51°17.797 2°29.322 155.8 4.6 143.7 27.4
2002-04-16 12:52:58 51°17.76 2°29.467 107.5 7.8 103.3 30.1
2002-04-16 12:53:58 51°17.698 2°29.777 115.5 13.7 112.3 32.4
2002-04-16 12:54:58 51°17.595 2°30.109 121 13.9 117.9 31.6
2002-04-16 12:55:58 51°17.492 2°30.442 117.7 13.9 114.9 31.3
2002-04-16 12:56:58 51°17.381 2°30.767 123 14 119.4 30.5
2002-04-16 12:57:59 51°17.267 2°31.1 122.2 14 117.3 30.1
2002-04-16 12:58:58 51°17.161 2°31.425 122.3 14.1 117.8 26.3
2002-04-16 12:59:58 51°17.056 2°31.758 121.3 14.1 115.7 29.4
2002-04-16 13:00:58 51°16.95 2°32.09 121.8 14.1 117 29.5
2002-04-16 13:01:59 51°16.842 2°32.43 122.2 14.2 116.3 27.9
2002-04-16 13:02:58 51°16.735 2°32.762 120.5 14.4 117.1 26.2
2002-04-16 13:03:59 51°16.625 2°33.107 122.3 14.4 117.4 27.8
2002-04-16 13:04:59 51°16.518 2°33.451 122.2 14.5 115.7 19.9
2002-04-16 13:05:58 51°16.408 2°33.792 122 14.8 118 11.4
2002-04-16 13:06:58 51°16.292 2°34.146 122 15.2 117.6 13
2002-04-16 13:07:58 51°16.177 2°34.501 121.7 15 117.4 17.5
2002-04-16 13:08:58 51°16.065 2°34.849 122.2 14.6 117.5 28.2
2002-04-16 13:09:58 51°15.968 2°35.202 114 14.5 108.7 28.5
2002-04-16 13:10:59 51°15.89 2°35.574 117 14.3 112.1 29
2002-04-16 13:11:58 51°15.805 2°35.917 116.3 14 111.4 29.2
2002-04-16 13:12:59 51°15.721 2°36.271 117 14 111 26.4
2002-04-16 13:13:58 51°15.639 2°36.617 116 14.2 110.5 18.7
2002-04-16 13:14:58 51°15.555 2°36.974 115.3 14.4 111.1 13.1
2002-04-16 13:15:58 51°15.466 2°37.335 116.5 14.7 110.7 14.8
2002-04-16 13:16:58 51°15.384 2°37.707 112.8 15.1 108.2 13.6
2002-04-16 13:17:59 51°15.329 2°38.101 100 15.1 96 13.8
2002-04-16 13:18:58 51°15.314 2°38.496 95.7 15.1 91.4 17.8
2002-04-16 13:19:58 51°15.294 2°38.891 102.7 14.9 98 20.8
2002-04-16 13:20:58 51°15.261 2°39.279 102 14.8 96.5 21
2002-04-16 13:21:58 51°15.234 2°39.669 101.7 14.8 96.6 20.1
2002-04-16 13:22:59 51°15.201 2°40.059 102.2 14.5 98.1 17
2002-04-16 13:23:58 51°15.168 2°40.436 101.7 14.5 97.2 15.2
2002-04-16 13:24:58 51°15.131 2°40.819 102.3 14.6 99.2 14.8
2002-04-16 13:25:59 51°15.094 2°41.211 101.8 14.7 98.2 14.5
2002-04-16 13:26:59 51°15.057 2°41.597 101.8 14.8 98.2 15.7
2002-04-16 13:27:58 51°15.023 2°41.979 101.7 14.8 97.8 15.8
2002-04-16 13:28:58 51°14.99 2°42.369 101.5 14.8 97.1 16.6
2002-04-16 13:29:58 51°14.963 2°42.761 101.2 14.9 95.2 15.4
2002-04-16 13:30:59 51°14.935 2°43.161 102.3 14.9 96.4 17.8
2002-04-16 13:31:59 51°14.912 2°43.561 101.3 15.3 95.3 20.7
2002-04-16 13:32:58 51°14.889 2°43.954 101.2 15.1 95.5 20.6
2002-04-16 13:33:58 51°14.865 2°44.354 101.2 15 95 19.4
2002-04-16 13:34:59 51°14.841 2°44.759 101.3 15.1 95.7 18.4
2002-04-16 13:35:59 51°14.817 2°45.158 100.3 15.2 94.5 16.7
2002-04-16 13:36:58 51°14.808 2°45.552 93.2 15.1 88.6 14.6
2002-04-16 13:37:59 51°14.814 2°45.961 93.8 15.1 89.5 12.7
2002-04-16 13:38:58 51°14.814 2°46.352 94 15 89.8 11.9
2002-04-16 13:39:58 51°14.814 2°46.748 94 14.9 89.6 13.3
2002-04-16 13:40:58 51°14.815 2°47.145 94.2 14.9 89.9 15.6
2002-04-16 13:41:58 51°14.819 2°47.544 93.7 15.2 87.9 15.8
2002-04-16 13:42:58 51°14.815 2°47.947 97.7 15.2 92.4 15.8
2002-04-16 13:43:58 51°14.808 2°48.35 96.7 15.2 90.9 15.1
2002-04-16 13:44:58 51°14.804 2°48.752 96.2 15.1 90.6 15.4
2002-04-16 13:45:59 51°14.8 2°49.157 97 15.1 91.4 15.5
2002-04-16 13:46:58 51°14.796 2°49.548 96 15 90 15.4
2002-04-16 13:47:59 51°14.793 2°49.953 96.7 15.1 90.5 15.2
2002-04-16 13:48:58 51°14.788 2°50.348 97 15.2 91.3 15.1
2002-04-16 13:49:59 51°14.783 2°50.755 97.7 15.1 91.8 14.6
2002-04-16 13:50:58 51°14.778 2°51.145 97.2 14.9 91 14
2002-04-16 13:51:58 51°14.772 2°51.539 97 14.9 91.3 13.6
2002-04-16 13:52:58 51°14.766 2°51.932 96.3 14.8 91.5 13
2002-04-16 13:53:58 51°14.758 2°52.321 96.7 14.8 91.1 12.7
2002-04-16 13:54:58 51°14.752 2°52.712 96.7 14.7 91.3 12.6
2002-04-16 13:55:58 51°14.742 2°53.101 99.5 14.6 93.3 12.5
2002-04-16 13:56:59 51°14.705 2°53.488 108 14.5 101.7 12.6
2002-04-16 13:57:59 51°14.647 2°53.859 111.2 14.5 104.2 13.2
2002-04-16 13:58:58 51°14.577 2°54.226 116.8 14.5 108.1 13
2002-04-16 13:59:58 51°14.499 2°54.561 120.7 13.2 112.6 12.9
2002-04-16 14:00:58 51°14.417 2°54.874 123.2 12.6 114.6 13
2002-04-16 14:01:58 51°14.316 2°55.143 131.7 10.3 132.1 12.9
2002-04-16 14:02:58 51°14.229 2°55.301 140.2 6.7 138 13.6
2002-04-16 14:03:58 51°14.142 2°55.392 152.8 6.1 151.3 13.5
2002-04-16 14:04:58 51°14.057 2°55.46 157.8 5.6 155.5 13.6
2002-04-16 14:05:58 51°13.974 2°55.524 155.8 5.5 152.2 13.3
2002-04-16 14:06:58 51°13.892 2°55.587 157.3 5.5 154.7 13.1
2002-04-16 14:07:59 51°13.818 2°55.64 156.2 4.2 155.3 13.3
2002-04-16 14:08:58 51°13.769 2°55.687 142.8 3.2 141.4 13
2002-04-16 14:09:58 51°13.739 2°55.742 128.8 2.7 129.2 13.2
2002-04-16 14:10:58 51°13.714 2°55.8 120.7 2.5 118.9 12.8
2002-04-16 14:11:59 51°13.698 2°55.859 107.7 2.2 107.9 12.3
2002-04-16 14:12:59 51°13.694 2°55.886 104.2 0.3 97.3 10.8
2002-04-16 14:13:58 51°13.693 2°55.892 112.2 0.6 112.6 10.8
2002-04-16 14:15:01 51°13.69 2°55.897 112.8 0.3 132.9 10.9